Terminal Aerodrome Forecast
Issued by NWS Upton, NY

Current Version | Previous Version | Text Only | Print | Product List | Glossary On
Versions: 1 2 3 4 5 6 7 8 9 10 11 12 13 14 15 16 17 18 19 20 21 22 23 24 25 26 27 28 29 30 31 32
000
FTUS41 KOKX 272000 AAA
TAFJFK
TAF AMD
KJFK 272030Z 2721/2824 32008KT P6SM SCT020 BKN040
      TEMPO 2721/2801 BKN020
     FM280500 31010KT P6SM SCT050 SCT080
     FM281400 31014G20KT P6SM FEW040=

USA.gov is the U.S. government's official web portal to all federal, state and local government web resources and services.